createdAt,value
2018-10-21T00:01:50.265Z,15.00
2018-10-21T00:04:18.763Z,13.17
2018-10-21T00:06:47.336Z,13.50
2018-10-21T00:09:15.873Z,13.03
2018-10-21T00:11:44.336Z,13.37
2018-10-21T00:14:17.160Z,15.53
2018-10-21T00:16:46.056Z,14.10
2018-10-21T00:19:14.522Z,14.73
2018-10-21T00:21:42.984Z,13.87
2018-10-21T00:24:11.479Z,13.50
2018-10-21T00:26:39.956Z,13.40
2018-10-21T00:29:08.385Z,15.33
2018-10-21T00:31:36.893Z,15.50
2018-10-21T00:34:06.085Z,15.27
2018-10-21T00:36:34.449Z,14.37
2018-10-21T00:39:03.023Z,14.07
2018-10-21T00:41:31.491Z,14.80
2018-10-21T00:43:59.963Z,15.00
2018-10-21T00:46:28.359Z,14.03
2018-10-21T00:48:56.867Z,15.00
2018-10-21T00:51:32.309Z,15.47
2018-10-21T00:54:00.760Z,15.33
2018-10-21T00:56:29.267Z,15.40
2018-10-21T00:58:57.751Z,14.50
2018-10-21T01:01:26.232Z,13.33
2018-10-21T01:03:54.638Z,13.87
2018-10-21T01:06:23.163Z,14.57
2018-10-21T01:08:51.660Z,14.90
2018-10-21T01:11:20.115Z,14.20
2018-10-21T01:13:48.596Z,15.20
2018-10-21T01:16:17.309Z,14.13
2018-10-21T01:18:45.780Z,15.47
2018-10-21T01:21:14.345Z,14.60
2018-10-21T01:23:42.780Z,14.50
2018-10-21T01:26:11.212Z,15.03
2018-10-21T01:28:39.632Z,15.77
2018-10-21T01:31:08.040Z,16.03
2018-10-21T01:33:36.492Z,16.13
2018-10-21T01:36:05.222Z,15.43
2018-10-21T01:38:33.626Z,14.70
2018-10-21T01:41:01.995Z,15.03
2018-10-21T01:43:33.984Z,16.73
2018-10-21T01:46:03.409Z,15.50
2018-10-21T01:48:32.644Z,15.47
2018-10-21T01:51:01.278Z,15.43
2018-10-21T01:53:29.721Z,15.07
2018-10-21T01:55:58.110Z,15.57
2018-10-21T01:58:26.518Z,14.63
2018-10-21T02:00:55.153Z,14.97
2018-10-21T02:03:23.594Z,15.03
2018-10-21T02:05:51.988Z,15.80
2018-10-21T02:08:20.413Z,14.60
2018-10-21T02:10:48.803Z,16.13
2018-10-21T02:13:17.301Z,14.47
2018-10-21T02:15:46.046Z,15.47
2018-10-21T02:18:14.522Z,15.33
2018-10-21T02:20:43.005Z,16.17
2018-10-21T02:23:11.535Z,14.97
2018-10-21T02:25:39.988Z,15.87
2018-10-21T02:28:08.517Z,15.00
2018-10-21T02:30:36.959Z,15.40
2018-10-21T02:33:05.539Z,15.47
2018-10-21T02:35:33.936Z,15.57
2018-10-21T02:38:02.433Z,14.60
2018-10-21T02:41:43.737Z,14.37
2018-10-21T02:44:18.377Z,14.73
2018-10-21T02:46:47.584Z,15.80
2018-10-21T02:49:16.732Z,16.13
2018-10-21T02:51:50.462Z,16.43
2018-10-21T02:54:26.092Z,16.80
2018-10-21T02:56:54.747Z,14.63
2018-10-21T02:59:23.663Z,16.90
2018-10-21T03:01:52.339Z,16.40
2018-10-21T03:04:28.252Z,15.03
2018-10-21T03:06:56.741Z,16.50
2018-10-21T03:09:25.015Z,16.00
2018-10-21T03:11:53.452Z,16.23
2018-10-21T03:14:21.893Z,16.37
2018-10-21T03:16:50.462Z,15.80
2018-10-21T03:19:18.917Z,15.53
2018-10-21T03:21:47.451Z,16.23
2018-10-21T03:24:15.844Z,15.53
2018-10-21T03:26:45.065Z,16.17
2018-10-21T03:29:13.493Z,15.80
2018-10-21T03:31:41.959Z,15.60
2018-10-21T03:34:10.493Z,16.40
2018-10-21T03:36:39.060Z,16.17
2018-10-21T03:39:09.298Z,18.17
2018-10-21T03:41:38.258Z,16.20
2018-10-21T03:44:07.266Z,17.90
2018-10-21T03:46:35.784Z,16.53
2018-10-21T03:49:05.797Z,17.20
2018-10-21T03:51:34.405Z,16.07
2018-10-21T03:54:03.321Z,16.23
2018-10-21T03:56:32.113Z,17.77
2018-10-21T03:59:00.834Z,17.90
2018-10-21T04:01:29.488Z,18.33
2018-10-21T04:03:58.399Z,18.37
2018-10-21T04:06:27.152Z,16.93
2018-10-21T04:08:55.912Z,18.33
2018-10-21T04:11:24.468Z,17.90
2018-10-21T04:13:53.216Z,15.87
2018-10-21T04:16:21.896Z,16.30
2018-10-21T04:18:50.468Z,16.87
2018-10-21T04:21:18.949Z,17.70
2018-10-21T04:23:47.599Z,16.77
2018-10-21T04:26:16.492Z,18.23
2018-10-21T04:28:54.500Z,17.07
2018-10-21T04:31:23.302Z,18.23
2018-10-21T04:33:51.940Z,17.60
2018-10-21T04:36:28.997Z,18.23
2018-10-21T04:40:10.659Z,17.90
2018-10-21T04:42:39.543Z,17.53
2018-10-21T04:45:09.013Z,18.17
2018-10-21T04:47:37.651Z,18.40
2018-10-21T04:50:07.644Z,17.57
2018-10-21T04:52:36.593Z,19.70
2018-10-21T04:55:13.412Z,18.30
2018-10-21T04:57:43.201Z,17.50
2018-10-21T05:00:14.698Z,17.53
2018-10-21T05:02:43.679Z,17.00
2018-10-21T05:05:13.678Z,18.47
2018-10-21T05:07:42.359Z,19.00
2018-10-21T05:10:18.542Z,18.57
2018-10-21T05:12:47.209Z,17.53
2018-10-21T05:15:15.833Z,17.83
2018-10-21T05:17:44.552Z,17.17
2018-10-21T05:20:13.798Z,18.23
2018-10-21T05:22:42.808Z,17.17
2018-10-21T05:25:12.254Z,17.63
2018-10-21T05:27:41.228Z,18.23
2018-10-21T05:30:10.738Z,17.93
2018-10-21T05:32:39.211Z,17.00
2018-10-21T05:35:10.094Z,18.57
2018-10-21T05:37:39.000Z,18.67
2018-10-21T05:40:09.266Z,16.70
2018-10-21T05:42:37.773Z,17.90
2018-10-21T05:45:06.665Z,15.93
2018-10-21T05:47:35.546Z,19.13
2018-10-21T05:50:04.043Z,18.27
2018-10-21T05:52:32.693Z,18.67
2018-10-21T05:55:01.264Z,18.07
2018-10-21T05:57:29.734Z,17.60
2018-10-21T05:59:58.156Z,17.17
2018-10-21T06:02:26.609Z,16.67
2018-10-21T06:04:55.292Z,18.03
2018-10-21T06:07:24.165Z,18.43
2018-10-21T06:09:52.652Z,18.50
2018-10-21T06:12:21.097Z,17.23
2018-10-21T06:14:50.588Z,18.30
2018-10-21T06:17:26.221Z,17.63
2018-10-21T06:19:57.108Z,17.97
2018-10-21T06:22:25.646Z,16.80
2018-10-21T06:24:54.337Z,19.13
2018-10-21T06:27:22.813Z,16.77
2018-10-21T06:29:51.324Z,17.10
2018-10-21T06:32:19.771Z,17.23
2018-10-21T06:34:48.280Z,17.87
2018-10-21T06:37:16.794Z,18.60
2018-10-21T06:39:45.201Z,18.63
2018-10-21T06:42:13.666Z,18.47
2018-10-21T06:44:42.118Z,17.97
2018-10-21T06:47:10.595Z,18.10
2018-10-21T06:49:39.015Z,17.73
2018-10-21T06:52:07.475Z,17.60
2018-10-21T06:54:36.072Z,18.40
2018-10-21T06:57:04.639Z,19.10
2018-10-21T06:59:33.025Z,18.73
2018-10-21T07:02:01.462Z,19.07
2018-10-21T07:04:30.054Z,19.17
2018-10-21T07:06:59.548Z,19.00
2018-10-21T07:09:30.369Z,18.20
2018-10-21T07:11:58.982Z,16.57
2018-10-21T07:14:27.532Z,18.67
2018-10-21T07:17:03.872Z,18.07
2018-10-21T07:19:32.379Z,19.40
2018-10-21T07:22:01.023Z,18.73
2018-10-21T07:24:29.505Z,16.97
2018-10-21T07:26:58.085Z,17.77
2018-10-21T07:29:27.702Z,19.53
2018-10-21T07:31:56.188Z,19.40
2018-10-21T07:34:24.717Z,18.37
2018-10-21T07:36:54.326Z,19.43
2018-10-21T07:39:24.518Z,19.30
2018-10-21T07:41:53.177Z,19.93
2018-10-21T07:44:21.807Z,24.55
2018-10-21T07:46:51.249Z,25.37
2018-10-21T07:49:19.909Z,23.80
2018-10-21T07:51:48.640Z,19.80
2018-10-21T07:54:17.416Z,19.07
2018-10-21T07:56:46.160Z,18.17
2018-10-21T07:59:31.257Z,18.67
2018-10-21T08:01:59.921Z,19.50
2018-10-21T08:04:28.892Z,18.90
2018-10-21T08:07:08.566Z,18.10
2018-10-21T08:09:37.302Z,18.20
2018-10-21T08:12:05.957Z,18.60
2018-10-21T08:14:34.641Z,17.33
2018-10-21T08:17:03.130Z,19.30
2018-10-21T08:19:31.589Z,19.50
2018-10-21T08:22:00.282Z,19.50
2018-10-21T08:24:28.873Z,18.13
2018-10-21T08:26:57.414Z,19.63
2018-10-21T08:29:26.050Z,18.00
2018-10-21T08:31:54.544Z,19.87
2018-10-21T08:34:23.041Z,19.07
2018-10-21T08:36:51.797Z,19.97
2018-10-21T08:39:20.376Z,18.70
2018-10-21T08:41:49.425Z,19.07
2018-10-21T08:44:17.883Z,17.93
2018-10-21T08:46:46.624Z,20.63
2018-10-21T08:49:15.345Z,19.57
2018-10-21T08:51:43.920Z,21.37
2018-10-21T08:54:12.375Z,18.47
2018-10-21T08:56:41.064Z,19.90
2018-10-21T08:59:09.713Z,19.20
2018-10-21T09:01:38.201Z,19.30
2018-10-21T09:04:06.811Z,19.67
2018-10-21T09:06:35.407Z,17.80
2018-10-21T09:09:05.275Z,18.43
2018-10-21T09:11:34.211Z,19.37
2018-10-21T09:14:08.309Z,18.57
2018-10-21T09:16:37.522Z,19.80
2018-10-21T09:19:06.209Z,18.53
2018-10-21T09:21:35.773Z,18.07
2018-10-21T09:24:04.337Z,19.73
2018-10-21T09:26:42.289Z,20.23
2018-10-21T09:29:20.668Z,19.77
2018-10-21T09:31:52.331Z,19.37
2018-10-21T09:34:21.026Z,19.90
2018-10-21T09:39:51.399Z,20.00
2018-10-21T09:42:42.040Z,19.47
2018-10-21T09:45:14.780Z,17.97
2018-10-21T09:47:49.121Z,18.87
2018-10-21T09:50:17.807Z,19.70
2018-10-21T09:52:46.600Z,17.60
2018-10-21T09:55:21.140Z,19.57
2018-10-21T09:57:51.169Z,17.93
2018-10-21T10:00:25.069Z,18.67
2018-10-21T10:02:58.932Z,18.73
2018-10-21T10:05:27.593Z,17.87
2018-10-21T10:07:57.190Z,18.83
2018-10-21T10:10:27.461Z,18.60
2018-10-21T10:12:56.189Z,18.70
2018-10-21T10:15:25.025Z,15.93
2018-10-21T10:17:53.871Z,16.40
2018-10-21T10:20:23.005Z,16.67
2018-10-21T10:22:51.654Z,16.53
2018-10-21T10:25:20.202Z,17.37
2018-10-21T10:27:48.733Z,16.23
2018-10-21T10:30:17.383Z,16.97
2018-10-21T10:32:46.493Z,16.50
2018-10-21T10:35:15.128Z,14.67
2018-10-21T10:37:43.627Z,16.27
2018-10-21T10:40:13.238Z,14.60
2018-10-21T10:42:42.040Z,16.07
2018-10-21T10:45:10.514Z,15.30
2018-10-21T10:47:39.397Z,14.10
2018-10-21T10:50:09.493Z,14.87
2018-10-21T10:52:38.294Z,13.93
2018-10-21T10:55:07.241Z,15.30
2018-10-21T10:57:35.704Z,15.07
2018-10-21T11:00:04.591Z,15.73
2018-10-21T11:02:32.920Z,14.90
2018-10-21T11:05:01.280Z,13.10
2018-10-21T11:07:29.942Z,13.20
2018-10-21T11:09:58.584Z,14.30
2018-10-21T11:12:32.954Z,14.63
2018-10-21T11:15:01.552Z,14.13
2018-10-21T11:17:30.057Z,14.37
2018-10-21T11:20:08.362Z,14.40
2018-10-21T11:22:53.587Z,13.53
2018-10-21T11:25:31.954Z,12.63
2018-10-21T11:28:03.460Z,12.87
2018-10-21T11:30:32.090Z,13.50
2018-10-21T11:33:01.651Z,13.40
2018-10-21T11:35:36.166Z,12.07
2018-10-21T11:38:06.541Z,12.83
2018-10-21T11:40:35.008Z,12.17
2018-10-21T11:43:03.450Z,13.27
2018-10-21T11:45:32.042Z,14.47
2018-10-21T11:48:00.841Z,14.67
2018-10-21T11:50:29.257Z,11.33
2018-10-21T11:52:57.712Z,13.37
2018-10-21T11:55:26.098Z,13.70
2018-10-21T11:57:54.757Z,12.40
2018-10-21T12:00:23.343Z,13.73
2018-10-21T12:02:51.838Z,13.87
2018-10-21T12:05:20.263Z,13.30
2018-10-21T12:07:48.786Z,11.73
2018-10-21T12:10:18.069Z,12.43
2018-10-21T12:12:46.471Z,12.53
2018-10-21T12:15:15.273Z,13.97
2018-10-21T12:17:44.912Z,12.93
2018-10-21T12:20:13.826Z,13.73
2018-10-21T12:22:42.830Z,14.00
2018-10-21T12:25:11.900Z,13.27
2018-10-21T12:27:40.878Z,12.93
2018-10-21T12:30:09.842Z,13.27
2018-10-21T12:32:40.348Z,13.10
2018-10-21T12:35:10.934Z,13.77
2018-10-21T12:37:39.905Z,11.97
2018-10-21T12:40:10.423Z,14.33
2018-10-21T12:42:40.965Z,14.07
2018-10-21T12:45:11.935Z,12.63
2018-10-21T12:47:40.936Z,13.33
2018-10-21T12:50:09.947Z,13.40
2018-10-21T12:52:38.976Z,12.30
2018-10-21T12:55:08.637Z,13.03
2018-10-21T12:57:37.710Z,11.77
2018-10-21T13:00:10.487Z,11.03
2018-10-21T13:02:38.911Z,14.73
2018-10-21T13:05:07.613Z,12.07
2018-10-21T13:07:36.221Z,10.60
2018-10-21T13:10:05.114Z,10.17
2018-10-21T13:12:33.676Z,8.40
2018-10-21T13:15:02.337Z,9.23
2018-10-21T13:17:30.865Z,10.10
2018-10-21T13:19:59.748Z,11.50
2018-10-21T13:22:28.486Z,9.33
2018-10-21T13:24:56.925Z,8.60
2018-10-21T13:27:25.314Z,10.87
2018-10-21T13:29:53.809Z,10.47
2018-10-21T13:32:22.340Z,11.27
2018-10-21T13:34:50.963Z,8.97
2018-10-21T13:37:19.406Z,8.40
2018-10-21T13:39:47.971Z,7.30
2018-10-21T13:42:16.383Z,7.97
2018-10-21T13:44:44.768Z,7.47
2018-10-21T13:47:13.128Z,9.80
2018-10-21T13:49:42.685Z,8.20
2018-10-21T13:52:11.227Z,8.33
2018-10-21T13:54:39.530Z,9.30
2018-10-21T13:57:07.965Z,8.60
2018-10-21T13:59:36.378Z,9.03
2018-10-21T14:02:05.087Z,9.83
2018-10-21T14:04:33.581Z,8.07
2018-10-21T14:07:02.105Z,9.30
2018-10-21T14:09:30.475Z,9.73
2018-10-21T14:11:58.917Z,8.20
2018-10-21T14:14:27.332Z,8.33
2018-10-21T14:16:55.777Z,7.63
2018-10-21T14:19:24.250Z,7.90
2018-10-21T14:21:52.805Z,7.03
2018-10-21T14:24:21.194Z,7.23
2018-10-21T14:26:49.624Z,6.13
2018-10-21T14:29:18.096Z,6.73
2018-10-21T14:31:46.554Z,6.57
2018-10-21T14:34:14.953Z,5.90
2018-10-21T14:36:43.816Z,6.13
2018-10-21T14:39:13.411Z,6.17
2018-10-21T14:41:41.857Z,6.97
2018-10-21T14:44:10.393Z,6.60
2018-10-21T14:46:39.771Z,6.80
2018-10-21T14:49:09.221Z,5.80
2018-10-21T14:51:37.686Z,6.20
2018-10-21T14:54:06.414Z,5.77
2018-10-21T14:56:34.905Z,4.87
2018-10-21T14:59:03.325Z,5.30
2018-10-21T15:01:31.758Z,5.40
2018-10-21T15:04:00.175Z,6.00
2018-10-21T15:06:30.789Z,5.60
2018-10-21T15:08:59.601Z,7.20
2018-10-21T15:11:28.003Z,6.93
2018-10-21T15:13:56.556Z,8.13
2018-10-21T15:16:25.179Z,6.03
2018-10-21T15:18:53.727Z,6.10
2018-10-21T15:21:22.176Z,6.57
2018-10-21T15:23:50.745Z,7.20
2018-10-21T15:26:19.686Z,7.40
2018-10-21T15:28:48.490Z,7.10
2018-10-21T15:31:17.444Z,6.60
2018-10-21T15:33:46.207Z,6.37
2018-10-21T15:36:14.748Z,7.13
2018-10-21T15:38:43.532Z,6.33
2018-10-21T15:41:12.089Z,5.93
2018-10-21T15:43:40.925Z,6.80
2018-10-21T15:46:09.557Z,8.20
2018-10-21T15:48:37.990Z,6.77
2018-10-21T15:51:06.545Z,5.83
2018-10-21T15:53:35.205Z,6.43
2018-10-21T15:56:03.972Z,5.70
2018-10-21T15:58:32.413Z,6.00
2018-10-21T16:01:00.915Z,5.83
2018-10-21T16:03:29.534Z,6.17
2018-10-21T16:05:57.941Z,6.60
2018-10-21T16:08:26.647Z,5.90
2018-10-21T16:10:55.270Z,5.77
2018-10-21T16:13:23.896Z,7.53
2018-10-21T16:15:52.491Z,7.67
2018-10-21T16:18:20.909Z,5.73
2018-10-21T16:20:55.533Z,6.53
2018-10-21T16:23:24.293Z,6.30
2018-10-21T16:25:52.959Z,7.50
2018-10-21T16:28:26.007Z,6.87
2018-10-21T16:30:59.682Z,5.97
2018-10-21T16:33:29.046Z,6.77
2018-10-21T16:35:58.154Z,7.17
2018-10-21T16:38:26.744Z,6.47
2018-10-21T16:40:55.316Z,6.93
2018-10-21T16:43:23.750Z,5.87
2018-10-21T16:45:52.483Z,5.73
2018-10-21T16:48:21.011Z,6.23
2018-10-21T16:50:49.574Z,6.30
2018-10-21T16:53:18.134Z,6.87
2018-10-21T16:55:46.573Z,6.07
2018-10-21T16:58:15.136Z,6.13
2018-10-21T17:00:43.805Z,6.90
2018-10-21T17:03:12.189Z,6.50
2018-10-21T17:05:40.692Z,7.23
2018-10-21T17:08:09.098Z,6.70
2018-10-21T17:10:37.687Z,6.83
2018-10-21T17:13:06.020Z,6.43
2018-10-21T17:15:34.525Z,7.87
2018-10-21T17:18:03.202Z,7.40
2018-10-21T17:20:40.004Z,7.13
2018-10-21T17:23:09.179Z,7.73
2018-10-21T17:25:38.169Z,8.03
2018-10-21T17:28:07.245Z,7.67
2018-10-21T17:30:45.249Z,7.67
2018-10-21T17:33:14.218Z,6.43
2018-10-21T17:35:42.732Z,8.00
2018-10-21T17:38:11.340Z,7.63
2018-10-21T17:40:41.822Z,9.03
2018-10-21T17:43:10.495Z,9.37
2018-10-21T17:45:39.278Z,8.67
2018-10-21T17:48:07.842Z,8.33
2018-10-21T17:50:36.458Z,8.37
2018-10-21T17:53:06.916Z,8.43
2018-10-21T17:55:35.419Z,8.43
2018-10-21T17:58:03.847Z,9.03
2018-10-21T18:00:32.272Z,8.90
2018-10-21T18:03:00.693Z,7.83
2018-10-21T18:05:29.082Z,9.80
2018-10-21T18:07:57.490Z,9.80
2018-10-21T18:10:25.878Z,10.30
2018-10-21T18:12:54.365Z,11.27
2018-10-21T18:15:22.916Z,10.20
2018-10-21T18:17:51.353Z,8.70
2018-10-21T18:20:19.839Z,11.00
2018-10-21T18:22:48.326Z,9.93
2018-10-21T18:25:16.844Z,10.53
2018-10-21T18:27:45.515Z,14.10
2018-10-21T18:30:13.930Z,12.70
2018-10-21T18:32:42.741Z,15.43
2018-10-21T18:35:13.637Z,12.57
2018-10-21T18:37:42.078Z,12.10
2018-10-21T18:40:11.220Z,12.37
2018-10-21T18:42:40.331Z,11.23
2018-10-21T18:45:10.194Z,11.70
2018-10-21T18:47:38.658Z,11.73
2018-10-21T18:50:08.981Z,11.70
2018-10-21T18:52:37.418Z,11.67
2018-10-21T18:55:06.597Z,11.37
2018-10-21T18:57:35.022Z,11.83
2018-10-21T19:00:04.435Z,12.30
2018-10-21T19:02:32.846Z,12.00
2018-10-21T19:05:01.345Z,11.77
2018-10-21T19:07:29.796Z,11.13
2018-10-21T19:09:58.411Z,11.70
2018-10-21T19:12:26.856Z,12.43
2018-10-21T19:14:55.322Z,12.20
2018-10-21T19:17:23.773Z,12.03
2018-10-21T19:19:52.395Z,13.33
2018-10-21T19:22:21.047Z,13.03
2018-10-21T19:24:49.510Z,12.90
2018-10-21T19:27:18.090Z,12.63
2018-10-21T19:29:46.542Z,14.00
2018-10-21T19:32:14.994Z,14.17
2018-10-21T19:34:43.464Z,14.37
2018-10-21T19:37:11.985Z,13.30
2018-10-21T19:39:40.372Z,13.83
2018-10-21T19:42:08.868Z,12.90
2018-10-21T19:44:37.442Z,13.47
2018-10-21T19:47:05.966Z,13.07
2018-10-21T19:49:34.453Z,13.53
2018-10-21T19:52:02.958Z,13.17
2018-10-21T19:54:31.409Z,13.98
2018-10-21T19:56:59.916Z,14.43
2018-10-21T19:59:28.359Z,15.03
2018-10-21T20:01:56.974Z,18.13
2018-10-21T20:04:26.171Z,14.77
2018-10-21T20:06:54.680Z,13.57
2018-10-21T20:09:23.176Z,13.10
2018-10-21T20:11:51.538Z,13.97
2018-10-21T20:14:20.049Z,14.80
2018-10-21T20:16:48.554Z,13.73
2018-10-21T20:19:17.091Z,14.53
2018-10-21T20:21:45.514Z,13.40
2018-10-21T20:24:13.990Z,14.20
2018-10-21T20:26:42.488Z,13.73
2018-10-21T20:29:10.952Z,13.10
2018-10-21T20:31:39.318Z,14.17
2018-10-21T20:34:07.817Z,13.77
2018-10-21T20:36:36.320Z,15.27
2018-10-21T20:39:07.165Z,13.83
2018-10-21T20:41:35.761Z,15.00
2018-10-21T20:44:04.180Z,14.93
2018-10-21T20:46:32.725Z,14.87
2018-10-21T20:49:01.405Z,15.53
2018-10-21T20:51:29.908Z,14.73
2018-10-21T20:53:58.238Z,11.30
2018-10-21T20:56:26.543Z,14.00
2018-10-21T20:58:54.954Z,14.13
2018-10-21T21:01:23.403Z,14.10
2018-10-21T21:03:51.797Z,15.03
2018-10-21T21:06:20.237Z,15.63
2018-10-21T21:08:48.605Z,15.30
2018-10-21T21:11:16.963Z,14.90
2018-10-21T21:13:45.437Z,14.87
2018-10-21T21:16:13.868Z,14.47
2018-10-21T21:18:42.188Z,15.30
2018-10-21T21:21:10.632Z,14.43
2018-10-21T21:23:39.085Z,15.37
2018-10-21T21:26:07.531Z,14.60
2018-10-21T21:28:35.900Z,14.83
2018-10-21T21:31:04.324Z,14.03
2018-10-21T21:33:32.921Z,15.27
2018-10-21T21:36:01.415Z,14.53
2018-10-21T21:38:29.860Z,15.67
2018-10-21T21:40:58.269Z,15.30
2018-10-21T21:43:26.652Z,15.47
2018-10-21T21:45:55.061Z,14.20
2018-10-21T21:48:23.511Z,14.07
2018-10-21T21:50:51.937Z,16.07
2018-10-21T21:53:24.144Z,13.77
2018-10-21T21:55:58.241Z,15.53
2018-10-21T21:58:26.736Z,14.50
2018-10-21T22:00:55.144Z,15.73
2018-10-21T22:03:23.606Z,14.80
2018-10-21T22:05:52.236Z,15.03
2018-10-21T22:08:20.756Z,14.37
2018-10-21T22:10:49.457Z,15.83
2018-10-21T22:13:17.956Z,15.30
2018-10-21T22:15:46.456Z,14.33
2018-10-21T22:18:15.151Z,15.47
2018-10-21T22:20:43.563Z,15.07
2018-10-21T22:23:18.964Z,14.20
2018-10-21T22:25:47.439Z,14.37
2018-10-21T22:28:15.929Z,13.67
2018-10-21T22:30:44.318Z,16.27
2018-10-21T22:33:12.754Z,16.93
2018-10-21T22:35:50.831Z,15.73
2018-10-21T22:38:19.435Z,14.70
2018-10-21T22:40:47.865Z,13.37
2018-10-21T22:43:16.326Z,15.23
2018-10-21T22:45:44.804Z,15.73
2018-10-21T22:48:13.597Z,15.57
2018-10-21T22:50:42.014Z,14.37
2018-10-21T22:53:10.440Z,15.73
2018-10-21T22:55:39.021Z,14.83
2018-10-21T22:58:07.579Z,15.53
2018-10-21T23:00:35.964Z,15.40
2018-10-21T23:03:04.501Z,15.40
2018-10-21T23:05:32.997Z,15.13
2018-10-21T23:08:01.378Z,16.10
2018-10-21T23:10:29.761Z,15.57
2018-10-21T23:12:58.268Z,15.33
2018-10-21T23:15:26.698Z,14.87
2018-10-21T23:17:55.197Z,14.57
2018-10-21T23:20:23.609Z,14.87
2018-10-21T23:22:52.049Z,15.17
2018-10-21T23:25:32.774Z,15.60
2018-10-21T23:28:01.219Z,14.07
2018-10-21T23:30:29.621Z,14.93
2018-10-21T23:32:58.008Z,14.03
2018-10-21T23:35:26.513Z,14.73
2018-10-21T23:37:54.920Z,15.50
2018-10-21T23:40:23.320Z,15.47
2018-10-21T23:42:51.845Z,16.07
2018-10-21T23:45:20.282Z,15.27
2018-10-21T23:47:48.645Z,16.27
2018-10-21T23:50:17.083Z,15.83
2018-10-21T23:52:45.509Z,17.83
2018-10-21T23:55:13.905Z,15.67
2018-10-21T23:57:42.284Z,16.60
